sensor_id;sensor_type;location;lat;lon;timestamp;temperature;humidity
60293;DHT22;52402;52.670;6.750;2023-07-16T00:02:25;16.80;99.90
60293;DHT22;52402;52.670;6.750;2023-07-16T00:04:51;16.80;99.90
60293;DHT22;52402;52.670;6.750;2023-07-16T00:07:17;16.80;99.90
60293;DHT22;52402;52.670;6.750;2023-07-16T00:09:44;16.70;99.90
60293;DHT22;52402;52.670;6.750;2023-07-16T00:12:09;16.70;99.90
60293;DHT22;52402;52.670;6.750;2023-07-16T00:14:35;16.60;99.90
60293;DHT22;52402;52.670;6.750;2023-07-16T00:17:02;16.60;99.90
60293;DHT22;52402;52.670;6.750;2023-07-16T00:19:28;16.50;99.90
60293;DHT22;52402;52.670;6.750;2023-07-16T00:21:53;16.50;99.90
60293;DHT22;52402;52.670;6.750;2023-07-16T00:24:19;16.50;99.90
60293;DHT22;52402;52.670;6.750;2023-07-16T00:26:46;16.50;99.90
60293;DHT22;52402;52.670;6.750;2023-07-16T00:29:11;16.40;99.90
60293;DHT22;52402;52.670;6.750;2023-07-16T00:31:37;16.40;99.90
60293;DHT22;52402;52.670;6.750;2023-07-16T00:34:03;16.40;99.90
60293;DHT22;52402;52.670;6.750;2023-07-16T00:36:30;16.30;99.90
60293;DHT22;52402;52.670;6.750;2023-07-16T00:38:55;16.30;99.90
60293;DHT22;52402;52.670;6.750;2023-07-16T00:41:21;16.30;99.90
60293;DHT22;52402;52.670;6.750;2023-07-16T00:43:47;16.20;99.90
60293;DHT22;52402;52.670;6.750;2023-07-16T00:46:12;16.20;99.90
60293;DHT22;52402;52.670;6.750;2023-07-16T00:48:40;16.20;99.90
60293;DHT22;52402;52.670;6.750;2023-07-16T00:51:06;16.20;99.90
60293;DHT22;52402;52.670;6.750;2023-07-16T00:53:32;16.20;99.90
60293;DHT22;52402;52.670;6.750;2023-07-16T00:55:58;16.20;99.90
60293;DHT22;52402;52.670;6.750;2023-07-16T00:58:24;16.20;99.90
60293;DHT22;52402;52.670;6.750;2023-07-16T01:00:50;16.20;99.90
60293;DHT22;52402;52.670;6.750;2023-07-16T01:03:15;16.30;99.90
60293;DHT22;52402;52.670;6.750;2023-07-16T01:08:24;16.30;99.90
60293;DHT22;52402;52.670;6.750;2023-07-16T01:10:52;16.30;99.90
60293;DHT22;52402;52.670;6.750;2023-07-16T01:13:19;16.30;99.90
60293;DHT22;52402;52.670;6.750;2023-07-16T01:15:45;16.30;99.90
60293;DHT22;52402;52.670;6.750;2023-07-16T01:18:10;16.30;99.90
60293;DHT22;52402;52.670;6.750;2023-07-16T01:20:36;16.30;99.90
60293;DHT22;52402;52.670;6.750;2023-07-16T01:23:15;16.30;99.90
60293;DHT22;52402;52.670;6.750;2023-07-16T01:28:44;16.30;99.90
60293;DHT22;52402;52.670;6.750;2023-07-16T01:31:13;16.30;99.90
60293;DHT22;52402;52.670;6.750;2023-07-16T01:33:41;16.30;99.90
60293;DHT22;52402;52.670;6.750;2023-07-16T01:36:08;16.30;99.90
60293;DHT22;52402;52.670;6.750;2023-07-16T01:38:35;16.30;99.90
60293;DHT22;52402;52.670;6.750;2023-07-16T01:41:01;16.30;99.90
60293;DHT22;52402;52.670;6.750;2023-07-16T01:43:27;16.30;99.90
60293;DHT22;52402;52.670;6.750;2023-07-16T01:45:53;16.30;99.90
60293;DHT22;52402;52.670;6.750;2023-07-16T01:48:31;16.30;99.90
60293;DHT22;52402;52.670;6.750;2023-07-16T01:50:57;16.30;99.90
60293;DHT22;52402;52.670;6.750;2023-07-16T01:53:23;16.30;99.90
60293;DHT22;52402;52.670;6.750;2023-07-16T01:55:49;16.20;99.90
60293;DHT22;52402;52.670;6.750;2023-07-16T01:58:14;16.20;99.90
60293;DHT22;52402;52.670;6.750;2023-07-16T02:00:40;16.10;99.90
60293;DHT22;52402;52.670;6.750;2023-07-16T02:03:06;16.10;99.90
60293;DHT22;52402;52.670;6.750;2023-07-16T02:05:32;16.10;99.90
60293;DHT22;52402;52.670;6.750;2023-07-16T02:07:57;16.10;99.90
60293;DHT22;52402;52.670;6.750;2023-07-16T02:10:23;16.10;99.90
60293;DHT22;52402;52.670;6.750;2023-07-16T02:12:49;16.10;99.90
60293;DHT22;52402;52.670;6.750;2023-07-16T02:15:14;16.10;99.90
60293;DHT22;52402;52.670;6.750;2023-07-16T02:17:41;16.00;99.90
60293;DHT22;52402;52.670;6.750;2023-07-16T02:20:07;16.00;99.90
60293;DHT22;52402;52.670;6.750;2023-07-16T02:22:34;16.00;99.90
60293;DHT22;52402;52.670;6.750;2023-07-16T02:25:00;16.00;99.90
60293;DHT22;52402;52.670;6.750;2023-07-16T02:27:26;16.00;99.90
60293;DHT22;52402;52.670;6.750;2023-07-16T02:29:52;15.90;99.90
60293;DHT22;52402;52.670;6.750;2023-07-16T02:32:18;15.90;99.90
60293;DHT22;52402;52.670;6.750;2023-07-16T02:34:43;15.90;99.90
60293;DHT22;52402;52.670;6.750;2023-07-16T02:37:09;15.80;99.90
60293;DHT22;52402;52.670;6.750;2023-07-16T02:39:34;15.80;99.90
60293;DHT22;52402;52.670;6.750;2023-07-16T02:42:00;15.80;99.90
60293;DHT22;52402;52.670;6.750;2023-07-16T02:44:26;15.80;99.90
60293;DHT22;52402;52.670;6.750;2023-07-16T02:46:51;15.80;99.90
60293;DHT22;52402;52.670;6.750;2023-07-16T02:49:17;15.80;99.90
60293;DHT22;52402;52.670;6.750;2023-07-16T02:51:42;15.80;99.90
60293;DHT22;52402;52.670;6.750;2023-07-16T02:54:08;15.80;99.90
60293;DHT22;52402;52.670;6.750;2023-07-16T02:56:34;15.80;99.90
60293;DHT22;52402;52.670;6.750;2023-07-16T02:59:00;15.70;99.90
60293;DHT22;52402;52.670;6.750;2023-07-16T03:01:26;15.70;99.90
60293;DHT22;52402;52.670;6.750;2023-07-16T03:03:51;15.70;99.90
60293;DHT22;52402;52.670;6.750;2023-07-16T03:06:17;15.60;99.90
60293;DHT22;52402;52.670;6.750;2023-07-16T03:08:43;15.60;99.90
60293;DHT22;52402;52.670;6.750;2023-07-16T03:11:11;15.60;99.90
60293;DHT22;52402;52.670;6.750;2023-07-16T03:13:36;15.60;99.90
60293;DHT22;52402;52.670;6.750;2023-07-16T03:16:02;15.60;99.90
60293;DHT22;52402;52.670;6.750;2023-07-16T03:18:30;15.60;99.90
60293;DHT22;52402;52.670;6.750;2023-07-16T03:20:57;15.60;99.90
60293;DHT22;52402;52.670;6.750;2023-07-16T03:23:23;15.60;99.90
60293;DHT22;52402;52.670;6.750;2023-07-16T03:25:49;15.60;99.90
60293;DHT22;52402;52.670;6.750;2023-07-16T03:28:15;15.50;99.90
60293;DHT22;52402;52.670;6.750;2023-07-16T03:30:48;15.50;99.90
60293;DHT22;52402;52.670;6.750;2023-07-16T03:33:15;15.50;99.90
60293;DHT22;52402;52.670;6.750;2023-07-16T03:35:48;15.50;99.90
60293;DHT22;52402;52.670;6.750;2023-07-16T03:38:14;15.50;99.90
60293;DHT22;52402;52.670;6.750;2023-07-16T03:40:42;15.50;99.90
60293;DHT22;52402;52.670;6.750;2023-07-16T03:43:08;15.50;99.90
60293;DHT22;52402;52.670;6.750;2023-07-16T03:45:34;15.50;99.90
60293;DHT22;52402;52.670;6.750;2023-07-16T03:47:59;15.50;99.90
60293;DHT22;52402;52.670;6.750;2023-07-16T03:50:25;15.50;99.90
60293;DHT22;52402;52.670;6.750;2023-07-16T03:52:51;15.50;99.90
60293;DHT22;52402;52.670;6.750;2023-07-16T03:55:16;15.60;99.90
60293;DHT22;52402;52.670;6.750;2023-07-16T03:57:42;15.50;99.90
60293;DHT22;52402;52.670;6.750;2023-07-16T04:00:08;15.60;99.90
60293;DHT22;52402;52.670;6.750;2023-07-16T04:02:35;15.60;99.90
60293;DHT22;52402;52.670;6.750;2023-07-16T04:05:01;15.60;99.90
60293;DHT22;52402;52.670;6.750;2023-07-16T04:07:27;15.60;99.90
60293;DHT22;52402;52.670;6.750;2023-07-16T04:09:53;15.60;99.90
60293;DHT22;52402;52.670;6.750;2023-07-16T04:12:18;15.50;99.90
60293;DHT22;52402;52.670;6.750;2023-07-16T04:14:44;15.50;99.90
60293;DHT22;52402;52.670;6.750;2023-07-16T04:17:10;15.50;99.90
60293;DHT22;52402;52.670;6.750;2023-07-16T04:19:36;15.50;99.90
60293;DHT22;52402;52.670;6.750;2023-07-16T04:22:01;15.50;99.90
60293;DHT22;52402;52.670;6.750;2023-07-16T04:24:27;15.50;99.90
60293;DHT22;52402;52.670;6.750;2023-07-16T04:26:57;15.60;99.90
60293;DHT22;52402;52.670;6.750;2023-07-16T04:29:23;15.60;99.90
60293;DHT22;52402;52.670;6.750;2023-07-16T04:31:48;15.60;99.90
60293;DHT22;52402;52.670;6.750;2023-07-16T04:34:14;15.60;99.90
60293;DHT22;52402;52.670;6.750;2023-07-16T04:36:39;15.70;99.90
60293;DHT22;52402;52.670;6.750;2023-07-16T04:39:05;15.70;99.90
60293;DHT22;52402;52.670;6.750;2023-07-16T04:41:31;15.70;99.90
60293;DHT22;52402;52.670;6.750;2023-07-16T04:43:56;15.70;99.90
60293;DHT22;52402;52.670;6.750;2023-07-16T04:46:22;15.70;99.90
60293;DHT22;52402;52.670;6.750;2023-07-16T04:48:48;15.70;99.90
60293;DHT22;52402;52.670;6.750;2023-07-16T04:51:13;15.80;99.90
60293;DHT22;52402;52.670;6.750;2023-07-16T04:53:39;15.80;99.90
60293;DHT22;52402;52.670;6.750;2023-07-16T04:56:05;15.80;99.90
60293;DHT22;52402;52.670;6.750;2023-07-16T04:58:37;15.90;99.90
60293;DHT22;52402;52.670;6.750;2023-07-16T05:01:03;15.80;99.90
60293;DHT22;52402;52.670;6.750;2023-07-16T05:03:29;15.90;99.90
60293;DHT22;52402;52.670;6.750;2023-07-16T05:05:54;16.00;99.90
60293;DHT22;52402;52.670;6.750;2023-07-16T05:08:20;16.00;99.90
60293;DHT22;52402;52.670;6.750;2023-07-16T05:10:46;16.00;99.90
60293;DHT22;52402;52.670;6.750;2023-07-16T05:13:11;16.10;99.90
60293;DHT22;52402;52.670;6.750;2023-07-16T05:15:37;16.10;99.90
60293;DHT22;52402;52.670;6.750;2023-07-16T05:18:03;16.10;99.90
60293;DHT22;52402;52.670;6.750;2023-07-16T05:20:29;16.20;99.90
60293;DHT22;52402;52.670;6.750;2023-07-16T05:22:55;16.20;99.90
60293;DHT22;52402;52.670;6.750;2023-07-16T05:25:20;16.30;99.90
60293;DHT22;52402;52.670;6.750;2023-07-16T05:27:46;16.40;99.90
60293;DHT22;52402;52.670;6.750;2023-07-16T05:30:12;16.40;99.90
60293;DHT22;52402;52.670;6.750;2023-07-16T05:32:37;16.40;99.90
60293;DHT22;52402;52.670;6.750;2023-07-16T05:35:03;16.50;99.90
60293;DHT22;52402;52.670;6.750;2023-07-16T05:37:29;16.50;99.90
60293;DHT22;52402;52.670;6.750;2023-07-16T05:39:55;16.50;99.90
60293;DHT22;52402;52.670;6.750;2023-07-16T05:42:21;16.60;99.90
60293;DHT22;52402;52.670;6.750;2023-07-16T05:44:49;16.60;99.90
60293;DHT22;52402;52.670;6.750;2023-07-16T05:47:15;16.60;99.90
60293;DHT22;52402;52.670;6.750;2023-07-16T05:49:40;16.70;99.90
60293;DHT22;52402;52.670;6.750;2023-07-16T05:52:06;16.80;99.90
60293;DHT22;52402;52.670;6.750;2023-07-16T05:54:32;16.80;99.90
60293;DHT22;52402;52.670;6.750;2023-07-16T05:56:58;16.80;99.90
60293;DHT22;52402;52.670;6.750;2023-07-16T05:59:23;16.80;99.90
60293;DHT22;52402;52.670;6.750;2023-07-16T06:01:49;16.90;99.90
60293;DHT22;52402;52.670;6.750;2023-07-16T06:04:14;16.90;99.90
60293;DHT22;52402;52.670;6.750;2023-07-16T06:06:40;17.00;99.90
60293;DHT22;52402;52.670;6.750;2023-07-16T06:09:06;17.00;99.90
60293;DHT22;52402;52.670;6.750;2023-07-16T06:11:31;17.00;99.90
60293;DHT22;52402;52.670;6.750;2023-07-16T06:13:57;17.10;99.90
60293;DHT22;52402;52.670;6.750;2023-07-16T06:16:23;17.20;99.90
60293;DHT22;52402;52.670;6.750;2023-07-16T06:18:48;17.20;99.90
60293;DHT22;52402;52.670;6.750;2023-07-16T06:21:14;17.30;99.90
60293;DHT22;52402;52.670;6.750;2023-07-16T06:23:40;17.30;99.90
60293;DHT22;52402;52.670;6.750;2023-07-16T06:26:05;17.40;99.90
60293;DHT22;52402;52.670;6.750;2023-07-16T06:28:32;17.50;99.90
60293;DHT22;52402;52.670;6.750;2023-07-16T06:30:57;17.50;99.90
60293;DHT22;52402;52.670;6.750;2023-07-16T06:33:23;17.60;99.90
60293;DHT22;52402;52.670;6.750;2023-07-16T06:35:50;17.60;99.90
60293;DHT22;52402;52.670;6.750;2023-07-16T06:38:16;17.60;99.90
60293;DHT22;52402;52.670;6.750;2023-07-16T06:40:49;17.70;99.90
60293;DHT22;52402;52.670;6.750;2023-07-16T06:43:16;17.70;99.90
60293;DHT22;52402;52.670;6.750;2023-07-16T06:45:42;17.80;99.90
60293;DHT22;52402;52.670;6.750;2023-07-16T06:48:07;17.80;99.90
60293;DHT22;52402;52.670;6.750;2023-07-16T06:50:33;17.90;99.90
60293;DHT22;52402;52.670;6.750;2023-07-16T06:52:58;17.90;99.90
60293;DHT22;52402;52.670;6.750;2023-07-16T06:55:24;18.00;99.90
60293;DHT22;52402;52.670;6.750;2023-07-16T06:57:50;18.00;99.90
60293;DHT22;52402;52.670;6.750;2023-07-16T07:00:15;18.10;99.90
60293;DHT22;52402;52.670;6.750;2023-07-16T07:02:41;18.20;99.90
60293;DHT22;52402;52.670;6.750;2023-07-16T07:05:07;18.20;99.90
60293;DHT22;52402;52.670;6.750;2023-07-16T07:07:33;18.30;99.90
60293;DHT22;52402;52.670;6.750;2023-07-16T07:09:58;18.40;99.90
60293;DHT22;52402;52.670;6.750;2023-07-16T07:12:24;18.40;99.90
60293;DHT22;52402;52.670;6.750;2023-07-16T07:14:50;18.60;99.90
60293;DHT22;52402;52.670;6.750;2023-07-16T07:17:15;18.70;99.90
60293;DHT22;52402;52.670;6.750;2023-07-16T07:19:42;18.70;99.90
60293;DHT22;52402;52.670;6.750;2023-07-16T07:22:08;18.80;99.90
60293;DHT22;52402;52.670;6.750;2023-07-16T07:24:34;18.90;99.90
60293;DHT22;52402;52.670;6.750;2023-07-16T07:26:59;19.00;99.90
60293;DHT22;52402;52.670;6.750;2023-07-16T07:29:25;19.10;99.90
60293;DHT22;52402;52.670;6.750;2023-07-16T07:31:53;19.10;99.90
60293;DHT22;52402;52.670;6.750;2023-07-16T07:34:18;19.20;99.90
60293;DHT22;52402;52.670;6.750;2023-07-16T07:36:44;19.30;99.90
60293;DHT22;52402;52.670;6.750;2023-07-16T07:39:10;19.40;99.90
60293;DHT22;52402;52.670;6.750;2023-07-16T07:41:36;19.50;99.90
60293;DHT22;52402;52.670;6.750;2023-07-16T07:44:01;19.50;99.90
60293;DHT22;52402;52.670;6.750;2023-07-16T07:46:27;19.50;99.90
60293;DHT22;52402;52.670;6.750;2023-07-16T07:48:53;19.60;99.90
60293;DHT22;52402;52.670;6.750;2023-07-16T07:51:19;19.70;99.90
60293;DHT22;52402;52.670;6.750;2023-07-16T07:53:46;19.70;99.90
60293;DHT22;52402;52.670;6.750;2023-07-16T07:56:11;19.70;99.90
60293;DHT22;52402;52.670;6.750;2023-07-16T07:58:37;19.80;99.90
60293;DHT22;52402;52.670;6.750;2023-07-16T08:01:07;19.90;99.90
60293;DHT22;52402;52.670;6.750;2023-07-16T08:03:33;20.00;99.90
60293;DHT22;52402;52.670;6.750;2023-07-16T08:05:58;20.10;99.90
60293;DHT22;52402;52.670;6.750;2023-07-16T08:08:24;20.10;99.90
60293;DHT22;52402;52.670;6.750;2023-07-16T08:10:49;20.10;99.90
60293;DHT22;52402;52.670;6.750;2023-07-16T08:13:15;20.30;99.90
60293;DHT22;52402;52.670;6.750;2023-07-16T08:15:41;20.30;99.90
60293;DHT22;52402;52.670;6.750;2023-07-16T08:18:06;20.40;99.90
60293;DHT22;52402;52.670;6.750;2023-07-16T08:20:32;20.50;99.90
60293;DHT22;52402;52.670;6.750;2023-07-16T08:22:57;20.50;99.90
60293;DHT22;52402;52.670;6.750;2023-07-16T08:25:23;20.60;99.90
60293;DHT22;52402;52.670;6.750;2023-07-16T08:27:49;20.80;99.90
60293;DHT22;52402;52.670;6.750;2023-07-16T08:30:15;20.90;99.90
60293;DHT22;52402;52.670;6.750;2023-07-16T08:32:40;21.00;99.90
60293;DHT22;52402;52.670;6.750;2023-07-16T08:35:06;21.10;99.90
60293;DHT22;52402;52.670;6.750;2023-07-16T08:37:32;21.10;99.90
60293;DHT22;52402;52.670;6.750;2023-07-16T08:39:58;21.00;99.90
60293;DHT22;52402;52.670;6.750;2023-07-16T08:42:24;20.90;99.90
60293;DHT22;52402;52.670;6.750;2023-07-16T08:44:50;20.70;99.90
60293;DHT22;52402;52.670;6.750;2023-07-16T08:47:16;20.70;99.90
60293;DHT22;52402;52.670;6.750;2023-07-16T08:49:53;20.60;99.90
60293;DHT22;52402;52.670;6.750;2023-07-16T08:52:19;20.40;99.90
60293;DHT22;52402;52.670;6.750;2023-07-16T08:54:44;20.30;99.90
60293;DHT22;52402;52.670;6.750;2023-07-16T08:57:11;20.20;99.90
60293;DHT22;52402;52.670;6.750;2023-07-16T08:59:37;20.00;99.90
60293;DHT22;52402;52.670;6.750;2023-07-16T09:02:03;20.00;99.90
60293;DHT22;52402;52.670;6.750;2023-07-16T09:04:29;20.00;99.90
60293;DHT22;52402;52.670;6.750;2023-07-16T09:06:55;20.10;99.90
60293;DHT22;52402;52.670;6.750;2023-07-16T09:09:24;20.10;99.90
60293;DHT22;52402;52.670;6.750;2023-07-16T09:11:50;20.40;99.90
60293;DHT22;52402;52.670;6.750;2023-07-16T09:14:20;20.50;99.90
60293;DHT22;52402;52.670;6.750;2023-07-16T09:16:52;20.70;99.90
60293;DHT22;52402;52.670;6.750;2023-07-16T09:19:18;21.20;99.90
60293;DHT22;52402;52.670;6.750;2023-07-16T09:21:50;21.40;99.90
60293;DHT22;52402;52.670;6.750;2023-07-16T09:24:18;21.60;99.90
60293;DHT22;52402;52.670;6.750;2023-07-16T09:26:54;21.50;99.90
60293;DHT22;52402;52.670;6.750;2023-07-16T09:29:20;21.30;99.90
60293;DHT22;52402;52.670;6.750;2023-07-16T09:31:56;21.30;99.90
60293;DHT22;52402;52.670;6.750;2023-07-16T09:34:23;21.30;99.90
60293;DHT22;52402;52.670;6.750;2023-07-16T09:36:49;21.40;99.90
60293;DHT22;52402;52.670;6.750;2023-07-16T09:39:17;21.30;99.90
60293;DHT22;52402;52.670;6.750;2023-07-16T09:41:47;21.20;99.90
60293;DHT22;52402;52.670;6.750;2023-07-16T09:44:14;20.90;99.90
60293;DHT22;52402;52.670;6.750;2023-07-16T09:46:40;20.90;99.90
60293;DHT22;52402;52.670;6.750;2023-07-16T09:49:07;20.90;99.90
60293;DHT22;52402;52.670;6.750;2023-07-16T09:51:38;21.20;99.90
60293;DHT22;52402;52.670;6.750;2023-07-16T09:54:04;21.40;99.90
60293;DHT22;52402;52.670;6.750;2023-07-16T09:56:39;21.50;99.90
60293;DHT22;52402;52.670;6.750;2023-07-16T09:59:08;21.60;99.90
60293;DHT22;52402;52.670;6.750;2023-07-16T10:01:37;21.90;99.90
60293;DHT22;52402;52.670;6.750;2023-07-16T10:04:19;22.10;99.90
60293;DHT22;52402;52.670;6.750;2023-07-16T10:09:41;21.90;99.90
60293;DHT22;52402;52.670;6.750;2023-07-16T10:12:18;21.70;99.90
60293;DHT22;52402;52.670;6.750;2023-07-16T10:14:49;21.50;99.90
60293;DHT22;52402;52.670;6.750;2023-07-16T10:17:20;21.50;99.90
60293;DHT22;52402;52.670;6.750;2023-07-16T10:20:00;21.40;99.90
60293;DHT22;52402;52.670;6.750;2023-07-16T10:22:43;21.50;99.90
60293;DHT22;52402;52.670;6.750;2023-07-16T10:25:23;21.40;99.90
60293;DHT22;52402;52.670;6.750;2023-07-16T10:27:51;21.30;99.90
60293;DHT22;52402;52.670;6.750;2023-07-16T10:30:17;21.20;99.90
60293;DHT22;52402;52.670;6.750;2023-07-16T10:32:43;21.10;99.90
60293;DHT22;52402;52.670;6.750;2023-07-16T10:35:09;21.00;99.90
60293;DHT22;52402;52.670;6.750;2023-07-16T10:37:36;20.90;99.90
60293;DHT22;52402;52.670;6.750;2023-07-16T10:40:03;20.80;99.90
60293;DHT22;52402;52.670;6.750;2023-07-16T10:42:30;20.90;99.90
60293;DHT22;52402;52.670;6.750;2023-07-16T10:45:06;21.00;99.90
60293;DHT22;52402;52.670;6.750;2023-07-16T10:47:36;21.00;99.90
60293;DHT22;52402;52.670;6.750;2023-07-16T10:50:07;21.10;99.90
60293;DHT22;52402;52.670;6.750;2023-07-16T10:52:34;21.60;99.90
60293;DHT22;52402;52.670;6.750;2023-07-16T10:55:00;21.70;99.90
60293;DHT22;52402;52.670;6.750;2023-07-16T10:57:27;21.80;99.90
60293;DHT22;52402;52.670;6.750;2023-07-16T10:59:54;21.70;99.90
60293;DHT22;52402;52.670;6.750;2023-07-16T11:02:22;21.80;99.90
60293;DHT22;52402;52.670;6.750;2023-07-16T11:04:48;22.10;99.90
60293;DHT22;52402;52.670;6.750;2023-07-16T11:07:15;22.20;99.90
60293;DHT22;52402;52.670;6.750;2023-07-16T11:12:10;22.00;99.90
60293;DHT22;52402;52.670;6.750;2023-07-16T11:14:36;21.90;99.90
60293;DHT22;52402;52.670;6.750;2023-07-16T11:17:07;21.60;99.90
60293;DHT22;52402;52.670;6.750;2023-07-16T11:19:33;21.40;99.90
60293;DHT22;52402;52.670;6.750;2023-07-16T11:22:01;21.20;99.90
60293;DHT22;52402;52.670;6.750;2023-07-16T11:24:27;21.20;99.90
60293;DHT22;52402;52.670;6.750;2023-07-16T11:26:55;21.40;99.90
60293;DHT22;52402;52.670;6.750;2023-07-16T11:29:23;21.90;99.90
60293;DHT22;52402;52.670;6.750;2023-07-16T11:31:52;22.30;99.90
60293;DHT22;52402;52.670;6.750;2023-07-16T11:34:21;22.50;99.90
60293;DHT22;52402;52.670;6.750;2023-07-16T11:36:48;22.70;99.90
60293;DHT22;52402;52.670;6.750;2023-07-16T11:39:14;22.40;99.90
60293;DHT22;52402;52.670;6.750;2023-07-16T11:41:40;22.40;99.90
60293;DHT22;52402;52.670;6.750;2023-07-16T11:44:07;22.30;99.90
60293;DHT22;52402;52.670;6.750;2023-07-16T11:46:34;22.10;99.90
60293;DHT22;52402;52.670;6.750;2023-07-16T11:49:00;22.00;99.90
60293;DHT22;52402;52.670;6.750;2023-07-16T11:51:26;21.90;99.90
60293;DHT22;52402;52.670;6.750;2023-07-16T11:53:52;21.70;99.90
60293;DHT22;52402;52.670;6.750;2023-07-16T11:56:19;21.80;99.90
60293;DHT22;52402;52.670;6.750;2023-07-16T11:58:46;21.60;99.90
60293;DHT22;52402;52.670;6.750;2023-07-16T12:01:12;21.70;99.90
60293;DHT22;52402;52.670;6.750;2023-07-16T12:03:38;21.70;99.90
60293;DHT22;52402;52.670;6.750;2023-07-16T12:06:04;21.70;99.90
60293;DHT22;52402;52.670;6.750;2023-07-16T12:08:30;21.60;99.90
60293;DHT22;52402;52.670;6.750;2023-07-16T12:10:55;21.50;99.90
60293;DHT22;52402;52.670;6.750;2023-07-16T12:13:21;21.60;99.90
60293;DHT22;52402;52.670;6.750;2023-07-16T12:15:46;21.60;99.90
60293;DHT22;52402;52.670;6.750;2023-07-16T12:18:12;21.80;99.90
60293;DHT22;52402;52.670;6.750;2023-07-16T12:20:38;21.80;99.90
60293;DHT22;52402;52.670;6.750;2023-07-16T12:23:04;22.00;99.90
60293;DHT22;52402;52.670;6.750;2023-07-16T12:25:30;22.10;99.90
60293;DHT22;52402;52.670;6.750;2023-07-16T12:27:56;22.20;99.90
60293;DHT22;52402;52.670;6.750;2023-07-16T12:30:24;22.30;99.90
60293;DHT22;52402;52.670;6.750;2023-07-16T12:32:50;22.40;99.90
60293;DHT22;52402;52.670;6.750;2023-07-16T12:35:15;22.40;99.90
60293;DHT22;52402;52.670;6.750;2023-07-16T12:37:41;22.60;99.90
60293;DHT22;52402;52.670;6.750;2023-07-16T12:40:07;23.40;99.90
60293;DHT22;52402;52.670;6.750;2023-07-16T12:42:33;23.70;99.90
60293;DHT22;52402;52.670;6.750;2023-07-16T12:44:59;23.90;99.90
60293;DHT22;52402;52.670;6.750;2023-07-16T12:47:24;24.10;99.90
60293;DHT22;52402;52.670;6.750;2023-07-16T12:49:50;23.90;99.90
60293;DHT22;52402;52.670;6.750;2023-07-16T12:52:16;23.60;99.90
60293;DHT22;52402;52.670;6.750;2023-07-16T12:54:41;23.30;99.90
60293;DHT22;52402;52.670;6.750;2023-07-16T12:57:07;23.00;99.90
60293;DHT22;52402;52.670;6.750;2023-07-16T12:59:33;22.70;99.90
60293;DHT22;52402;52.670;6.750;2023-07-16T13:01:58;22.60;99.90
60293;DHT22;52402;52.670;6.750;2023-07-16T13:04:24;22.50;99.90
60293;DHT22;52402;52.670;6.750;2023-07-16T13:06:49;22.60;99.90
60293;DHT22;52402;52.670;6.750;2023-07-16T13:09:15;22.70;99.90
60293;DHT22;52402;52.670;6.750;2023-07-16T13:11:42;22.70;99.90
60293;DHT22;52402;52.670;6.750;2023-07-16T13:14:08;22.60;99.90
60293;DHT22;52402;52.670;6.750;2023-07-16T13:16:33;22.60;99.90
60293;DHT22;52402;52.670;6.750;2023-07-16T13:18:59;22.60;99.90
60293;DHT22;52402;52.670;6.750;2023-07-16T13:21:24;22.80;99.90
60293;DHT22;52402;52.670;6.750;2023-07-16T13:23:50;23.20;99.90
60293;DHT22;52402;52.670;6.750;2023-07-16T13:26:15;23.30;99.90
60293;DHT22;52402;52.670;6.750;2023-07-16T13:28:41;23.40;99.90
60293;DHT22;52402;52.670;6.750;2023-07-16T13:31:07;23.40;99.90
60293;DHT22;52402;52.670;6.750;2023-07-16T13:33:32;23.40;99.90
60293;DHT22;52402;52.670;6.750;2023-07-16T13:35:58;23.30;99.90
60293;DHT22;52402;52.670;6.750;2023-07-16T13:38:26;23.30;99.90
60293;DHT22;52402;52.670;6.750;2023-07-16T13:40:52;23.20;99.90
60293;DHT22;52402;52.670;6.750;2023-07-16T13:43:18;23.00;99.90
60293;DHT22;52402;52.670;6.750;2023-07-16T13:45:43;23.10;99.90
60293;DHT22;52402;52.670;6.750;2023-07-16T13:48:09;23.10;99.90
60293;DHT22;52402;52.670;6.750;2023-07-16T13:50:35;23.40;99.90
60293;DHT22;52402;52.670;6.750;2023-07-16T13:53:00;23.40;99.90
60293;DHT22;52402;52.670;6.750;2023-07-16T13:55:27;23.20;99.90
60293;DHT22;52402;52.670;6.750;2023-07-16T13:57:53;22.90;99.90
60293;DHT22;52402;52.670;6.750;2023-07-16T14:00:21;22.90;99.90
60293;DHT22;52402;52.670;6.750;2023-07-16T14:02:47;22.80;99.90
60293;DHT22;52402;52.670;6.750;2023-07-16T14:05:13;22.70;99.90
60293;DHT22;52402;52.670;6.750;2023-07-16T14:07:38;22.80;99.90
60293;DHT22;52402;52.670;6.750;2023-07-16T14:10:04;23.10;99.90
60293;DHT22;52402;52.670;6.750;2023-07-16T14:12:30;23.20;99.90
60293;DHT22;52402;52.670;6.750;2023-07-16T14:14:56;23.20;99.90
60293;DHT22;52402;52.670;6.750;2023-07-16T14:17:21;23.20;99.90
60293;DHT22;52402;52.670;6.750;2023-07-16T14:19:48;23.20;99.90
60293;DHT22;52402;52.670;6.750;2023-07-16T14:22:14;23.40;99.90
60293;DHT22;52402;52.670;6.750;2023-07-16T14:24:41;23.30;99.90
60293;DHT22;52402;52.670;6.750;2023-07-16T14:27:07;23.20;99.90
60293;DHT22;52402;52.670;6.750;2023-07-16T14:29:34;23.70;99.90
60293;DHT22;52402;52.670;6.750;2023-07-16T14:32:00;24.30;99.90
60293;DHT22;52402;52.670;6.750;2023-07-16T14:34:26;24.60;99.40
60293;DHT22;52402;52.670;6.750;2023-07-16T14:36:52;24.80;97.60
60293;DHT22;52402;52.670;6.750;2023-07-16T14:39:18;25.10;98.20
60293;DHT22;52402;52.670;6.750;2023-07-16T14:41:43;25.00;98.60
60293;DHT22;52402;52.670;6.750;2023-07-16T14:44:11;25.00;97.80
60293;DHT22;52402;52.670;6.750;2023-07-16T14:46:37;24.80;97.40
60293;DHT22;52402;52.670;6.750;2023-07-16T14:49:03;24.90;97.10
60293;DHT22;52402;52.670;6.750;2023-07-16T14:51:29;24.80;97.30
60293;DHT22;52402;52.670;6.750;2023-07-16T14:53:55;24.80;97.50
60293;DHT22;52402;52.670;6.750;2023-07-16T14:56:21;24.80;97.00
60293;DHT22;52402;52.670;6.750;2023-07-16T14:58:47;24.80;96.20
60293;DHT22;52402;52.670;6.750;2023-07-16T15:01:13;24.70;96.40
60293;DHT22;52402;52.670;6.750;2023-07-16T15:03:39;24.70;96.30
60293;DHT22;52402;52.670;6.750;2023-07-16T15:06:06;24.80;96.20
60293;DHT22;52402;52.670;6.750;2023-07-16T15:08:32;24.90;96.20
60293;DHT22;52402;52.670;6.750;2023-07-16T15:10:59;25.20;95.30
60293;DHT22;52402;52.670;6.750;2023-07-16T15:13:25;25.20;96.00
60293;DHT22;52402;52.670;6.750;2023-07-16T15:15:52;25.00;95.90
60293;DHT22;52402;52.670;6.750;2023-07-16T15:18:19;24.60;95.60
60293;DHT22;52402;52.670;6.750;2023-07-16T15:20:46;24.40;96.50
60293;DHT22;52402;52.670;6.750;2023-07-16T15:23:13;24.40;97.00
60293;DHT22;52402;52.670;6.750;2023-07-16T15:25:41;24.20;97.80
60293;DHT22;52402;52.670;6.750;2023-07-16T15:28:09;24.00;98.60
60293;DHT22;52402;52.670;6.750;2023-07-16T15:30:34;23.60;98.30
60293;DHT22;52402;52.670;6.750;2023-07-16T15:33:00;23.30;98.20
60293;DHT22;52402;52.670;6.750;2023-07-16T15:35:26;23.10;98.60
60293;DHT22;52402;52.670;6.750;2023-07-16T15:37:51;23.20;99.40